createdAt,value
2022-09-14T00:01:25.827Z,1.92
2022-09-14T00:04:01.853Z,1.92
2022-09-14T00:06:30.630Z,1.88
2022-09-14T00:09:00.776Z,2.15
2022-09-14T00:11:32.172Z,2.53
2022-09-14T00:14:00.891Z,2.20
2022-09-14T00:16:30.758Z,2.60
2022-09-14T00:19:00.772Z,2.53
2022-09-14T00:21:28.461Z,2.35
2022-09-14T00:23:54.959Z,2.60
2022-09-14T00:26:22.961Z,2.83
2022-09-14T00:28:52.095Z,3.20
2022-09-14T00:31:19.982Z,3.10
2022-09-14T00:33:48.427Z,3.20
2022-09-14T00:36:20.677Z,3.10
2022-09-14T00:38:48.477Z,3.67
2022-09-14T00:41:19.070Z,3.50
2022-09-14T00:44:24.178Z,3.92
2022-09-14T00:46:53.668Z,3.85
2022-09-14T00:49:39.422Z,3.85
2022-09-14T00:52:09.701Z,3.88
2022-09-14T00:54:41.531Z,4.70
2022-09-14T00:57:08.364Z,5.05
2022-09-14T00:59:38.229Z,5.50
2022-09-14T01:02:07.454Z,7.35
2022-09-14T01:04:34.022Z,5.35
2022-09-14T01:07:15.205Z,4.90
2022-09-14T01:10:00.430Z,16.83
2022-09-14T01:12:45.164Z,7.30
2022-09-14T01:15:23.476Z,8.18
2022-09-14T01:18:16.680Z,8.75
2022-09-14T01:21:19.336Z,17.35
2022-09-14T01:24:22.843Z,15.02
2022-09-14T01:27:21.551Z,12.10
2022-09-14T01:30:02.513Z,9.93
2022-09-14T01:32:36.003Z,13.50
2022-09-14T01:35:07.755Z,8.40
2022-09-14T01:37:40.569Z,7.75
2022-09-14T01:40:10.878Z,7.45
2022-09-14T01:42:41.643Z,7.55
2022-09-14T01:45:13.208Z,7.53
2022-09-14T01:47:54.145Z,6.80
2022-09-14T01:50:26.071Z,6.90
2022-09-14T01:53:00.998Z,7.25
2022-09-14T01:55:32.262Z,7.95
2022-09-14T01:58:05.411Z,7.30
2022-09-14T02:00:32.788Z,7.78
2022-09-14T02:03:06.707Z,7.55
2022-09-14T02:06:02.716Z,7.75
2022-09-14T02:08:31.596Z,8.18
2022-09-14T02:10:59.030Z,8.07
2022-09-14T02:13:26.953Z,7.72
2022-09-14T02:15:53.930Z,7.25
2022-09-14T02:18:20.874Z,7.20
2022-09-14T02:20:53.132Z,7.35
2022-09-14T02:23:19.704Z,7.55
2022-09-14T02:25:47.510Z,7.53
2022-09-14T02:28:14.588Z,8.18
2022-09-14T02:31:08.827Z,7.57
2022-09-14T02:34:20.258Z,7.72
2022-09-14T02:37:00.932Z,8.30
2022-09-14T02:39:39.833Z,8.65
2022-09-14T02:42:25.078Z,9.68
2022-09-14T02:45:16.241Z,10.00
2022-09-14T02:48:15.126Z,10.80
2022-09-14T02:50:57.180Z,11.10
2022-09-14T02:53:39.731Z,11.02
2022-09-14T02:56:09.070Z,11.90
2022-09-14T02:58:38.778Z,11.48
2022-09-14T03:01:07.038Z,10.70
2022-09-14T03:03:35.747Z,10.82
2022-09-14T03:06:03.616Z,10.25
2022-09-14T03:08:30.534Z,10.60
2022-09-14T03:10:57.536Z,10.77
2022-09-14T03:13:24.732Z,12.32
2022-09-14T03:15:51.872Z,12.30
2022-09-14T03:18:19.046Z,14.25
2022-09-14T03:20:45.565Z,14.23
2022-09-14T03:23:12.905Z,13.13
2022-09-14T03:25:42.061Z,14.20
2022-09-14T03:28:09.772Z,14.07
2022-09-14T03:30:36.534Z,15.25
2022-09-14T03:33:03.696Z,14.77
2022-09-14T03:35:31.986Z,14.55
2022-09-14T03:37:59.783Z,16.52
2022-09-14T03:40:27.426Z,15.60
2022-09-14T03:42:54.472Z,16.50
2022-09-14T03:45:21.824Z,16.95
2022-09-14T03:47:49.161Z,15.43
2022-09-14T03:50:17.222Z,19.08
2022-09-14T03:52:44.109Z,19.10
2022-09-14T03:55:11.518Z,15.98
2022-09-14T03:57:38.340Z,17.58
2022-09-14T04:00:06.825Z,15.75
2022-09-14T04:02:33.425Z,18.42
2022-09-14T04:05:00.080Z,16.50
2022-09-14T04:07:26.866Z,20.27
2022-09-14T04:09:53.421Z,17.13
2022-09-14T04:12:19.939Z,18.95
2022-09-14T04:14:46.465Z,18.65
2022-09-14T04:17:12.984Z,17.25
2022-09-14T04:19:42.206Z,19.63
2022-09-14T04:22:08.814Z,16.48
2022-09-14T04:24:35.999Z,18.85
2022-09-14T04:27:02.692Z,18.58
2022-09-14T04:29:30.644Z,15.93
2022-09-14T04:31:57.773Z,23.05
2022-09-14T04:34:24.742Z,18.20
2022-09-14T04:36:51.262Z,22.65
2022-09-14T04:39:18.289Z,18.65
2022-09-14T04:41:44.843Z,15.70
2022-09-14T04:44:11.921Z,21.52
2022-09-14T04:46:45.074Z,16.85
2022-09-14T04:49:13.190Z,16.95
2022-09-14T04:51:39.859Z,15.63
2022-09-14T04:54:07.302Z,17.83
2022-09-14T04:56:35.944Z,19.40
2022-09-14T04:59:04.446Z,15.07
2022-09-14T05:01:42.127Z,14.38
2022-09-14T05:04:10.048Z,14.77
2022-09-14T05:06:38.388Z,15.88
2022-09-14T05:09:08.345Z,13.32
2022-09-14T05:11:36.438Z,11.85
2022-09-14T05:14:03.811Z,14.25
2022-09-14T05:16:35.506Z,10.88
2022-09-14T05:19:05.233Z,13.00
2022-09-14T05:21:33.809Z,14.30
2022-09-14T05:24:03.467Z,16.95
2022-09-14T05:26:31.733Z,19.63
2022-09-14T05:29:00.809Z,20.98
2022-09-14T05:31:29.146Z,17.48
2022-09-14T05:33:55.783Z,17.95
2022-09-14T05:36:23.007Z,14.00
2022-09-14T05:38:49.742Z,19.88
2022-09-14T05:41:16.946Z,16.52
2022-09-14T05:43:44.508Z,18.20
2022-09-14T05:46:13.919Z,20.13
2022-09-14T05:48:40.816Z,19.90
2022-09-14T05:51:16.755Z,18.77
2022-09-14T05:53:47.461Z,21.35
2022-09-14T05:56:14.586Z,18.77
2022-09-14T05:58:42.367Z,18.30
2022-09-14T06:01:25.308Z,13.95
2022-09-14T06:03:56.738Z,24.50
2022-09-14T06:06:24.066Z,24.40
2022-09-14T06:08:52.703Z,24.45
2022-09-14T06:11:28.972Z,15.10
2022-09-14T06:13:56.102Z,22.65
2022-09-14T06:16:24.511Z,22.33
2022-09-14T06:18:51.564Z,18.33
2022-09-14T06:21:20.386Z,23.95
2022-09-14T06:23:48.290Z,19.88
2022-09-14T06:26:16.025Z,23.65
2022-09-14T06:28:43.206Z,22.63
2022-09-14T06:31:12.424Z,23.25
2022-09-14T06:33:43.851Z,19.42
2022-09-14T06:36:15.074Z,19.27
2022-09-14T06:38:42.350Z,21.73
2022-09-14T06:41:12.835Z,20.98
2022-09-14T06:43:40.941Z,19.30
2022-09-14T06:46:16.126Z,20.50
2022-09-14T06:48:50.810Z,18.70
2022-09-14T06:51:32.160Z,19.95
2022-09-14T06:54:00.172Z,18.13
2022-09-14T06:56:29.246Z,24.15
2022-09-14T06:58:55.825Z,14.75
2022-09-14T07:01:22.807Z,25.85
2022-09-14T07:03:52.298Z,17.05
2022-09-14T07:06:22.680Z,18.52
2022-09-14T07:08:50.971Z,23.05
2022-09-14T07:11:20.130Z,19.55
2022-09-14T07:13:47.534Z,22.55
2022-09-14T07:16:14.986Z,18.50
2022-09-14T07:18:41.900Z,19.50
2022-09-14T07:21:16.994Z,21.73
2022-09-14T07:23:45.295Z,20.98
2022-09-14T07:26:14.762Z,23.27
2022-09-14T07:28:43.359Z,18.95
2022-09-14T07:31:21.573Z,15.77
2022-09-14T07:33:48.666Z,19.05
2022-09-14T07:36:15.785Z,19.95
2022-09-14T07:38:52.235Z,18.10
2022-09-14T07:41:28.458Z,17.63
2022-09-14T07:43:57.419Z,16.15
2022-09-14T07:46:24.400Z,11.93
2022-09-14T07:48:58.870Z,12.00
2022-09-14T07:51:26.875Z,20.48
2022-09-14T07:53:53.819Z,17.38
2022-09-14T07:56:21.838Z,21.42
2022-09-14T07:58:53.983Z,15.90
2022-09-14T08:01:22.030Z,17.67
2022-09-14T08:03:49.267Z,23.98
2022-09-14T08:06:21.493Z,25.20
2022-09-14T08:08:51.168Z,20.70
2022-09-14T08:11:19.480Z,21.17
2022-09-14T08:13:53.367Z,24.00
2022-09-14T08:16:20.879Z,18.20
2022-09-14T08:18:48.583Z,16.20
2022-09-14T08:21:17.499Z,20.90
2022-09-14T08:23:45.179Z,22.98
2022-09-14T08:26:14.393Z,19.08
2022-09-14T08:28:41.852Z,18.88
2022-09-14T08:31:13.582Z,18.08
2022-09-14T08:33:44.264Z,12.43
2022-09-14T08:36:13.334Z,15.45
2022-09-14T08:38:40.171Z,15.85
2022-09-14T08:41:24.761Z,12.68
2022-09-14T08:43:52.025Z,16.13
2022-09-14T08:46:36.768Z,16.35
2022-09-14T08:49:10.937Z,16.70
2022-09-14T08:51:37.604Z,15.70
2022-09-14T08:54:04.138Z,21.40
2022-09-14T08:56:35.089Z,17.38
2022-09-14T08:59:17.849Z,14.70
2022-09-14T09:02:03.108Z,20.67
2022-09-14T09:04:37.011Z,19.42
2022-09-14T09:07:29.966Z,22.70
2022-09-14T09:09:58.301Z,19.05
2022-09-14T09:12:59.477Z,18.98
2022-09-14T09:15:32.604Z,17.45
2022-09-14T09:18:08.615Z,21.90
2022-09-14T09:20:44.158Z,19.95
2022-09-14T09:23:14.853Z,17.48
2022-09-14T09:26:01.126Z,19.23
2022-09-14T09:28:29.792Z,18.45
2022-09-14T09:31:01.078Z,21.15
2022-09-14T09:33:28.348Z,22.08
2022-09-14T09:35:55.641Z,18.10
2022-09-14T09:38:26.074Z,21.33
2022-09-14T09:41:14.890Z,21.38
2022-09-14T09:44:06.730Z,18.67
2022-09-14T09:46:37.675Z,17.65
2022-09-14T09:49:16.694Z,24.10
2022-09-14T09:51:44.041Z,19.23
2022-09-14T09:54:13.672Z,18.83
2022-09-14T09:57:02.155Z,20.63
2022-09-14T09:59:41.806Z,21.42
2022-09-14T10:02:28.781Z,19.92
2022-09-14T10:04:59.550Z,19.38
2022-09-14T10:07:27.686Z,21.77
2022-09-14T10:09:58.547Z,20.80
2022-09-14T10:12:25.976Z,18.45
2022-09-14T10:15:07.953Z,19.58
2022-09-14T10:17:34.825Z,17.92
2022-09-14T10:20:01.803Z,18.40
2022-09-14T10:22:33.002Z,17.95
2022-09-14T10:25:20.820Z,16.65
2022-09-14T10:27:59.488Z,15.48
2022-09-14T10:30:34.570Z,15.23
2022-09-14T10:33:04.656Z,13.93
2022-09-14T10:35:52.486Z,14.13
2022-09-14T10:38:32.001Z,14.55
2022-09-14T10:41:29.926Z,13.73
2022-09-14T10:44:22.829Z,12.65
2022-09-14T10:46:56.157Z,9.82
2022-09-14T10:49:33.575Z,9.15
2022-09-14T10:52:22.001Z,9.32
2022-09-14T10:55:32.233Z,12.80
2022-09-14T10:58:07.449Z,10.02
2022-09-14T11:00:51.886Z,12.38
2022-09-14T11:03:27.710Z,11.25
2022-09-14T11:06:25.384Z,10.30
2022-09-14T11:09:07.756Z,12.10
2022-09-14T11:11:37.332Z,12.20
2022-09-14T11:14:17.901Z,12.65
2022-09-14T11:16:57.542Z,12.23
2022-09-14T11:19:44.406Z,11.20
2022-09-14T11:22:33.381Z,9.77
2022-09-14T11:25:05.944Z,9.35
2022-09-14T11:27:41.238Z,9.23
2022-09-14T11:30:16.461Z,7.85
2022-09-14T11:32:51.742Z,9.18
2022-09-14T11:35:25.347Z,7.40
2022-09-14T11:38:11.037Z,6.43
2022-09-14T11:40:45.316Z,7.22
2022-09-14T11:43:16.972Z,6.65
2022-09-14T11:46:21.333Z,5.80
2022-09-14T11:48:57.254Z,5.53
2022-09-14T11:51:32.528Z,5.50
2022-09-14T11:53:59.195Z,5.07
2022-09-14T11:56:32.021Z,4.57
2022-09-14T11:59:01.538Z,5.47
2022-09-14T12:01:32.885Z,5.28
2022-09-14T12:04:14.736Z,5.55
2022-09-14T12:06:50.150Z,5.32
2022-09-14T12:09:17.189Z,5.63
2022-09-14T12:11:45.550Z,6.13
2022-09-14T12:14:24.308Z,5.10
2022-09-14T12:20:27.764Z,6.53
2022-09-14T12:23:24.870Z,6.18
2022-09-14T12:26:05.978Z,5.75
2022-09-14T12:28:35.283Z,5.53
2022-09-14T12:31:05.107Z,5.25
2022-09-14T12:33:34.295Z,5.18
2022-09-14T12:36:05.986Z,4.35
2022-09-14T12:38:38.242Z,4.43
2022-09-14T12:41:10.556Z,4.50
2022-09-14T12:43:37.303Z,4.20
2022-09-14T12:46:08.000Z,3.88
2022-09-14T12:48:47.094Z,3.95
2022-09-14T12:51:29.241Z,3.53
2022-09-14T12:54:01.702Z,2.88
2022-09-14T12:56:40.287Z,3.00
2022-09-14T12:59:15.994Z,2.65
2022-09-14T13:02:00.982Z,2.53
2022-09-14T13:04:35.006Z,2.65
2022-09-14T13:07:05.858Z,2.78
2022-09-14T13:09:33.318Z,3.40
2022-09-14T13:11:59.788Z,3.55
2022-09-14T13:14:30.734Z,3.40
2022-09-14T13:16:59.974Z,3.47
2022-09-14T13:19:30.898Z,3.88
2022-09-14T13:22:00.508Z,5.05
2022-09-14T13:24:36.538Z,5.13
2022-09-14T13:27:04.390Z,4.75
2022-09-14T13:29:31.150Z,3.72
2022-09-14T13:32:03.309Z,3.50
2022-09-14T13:34:44.387Z,2.63
2022-09-14T13:37:14.450Z,3.25
2022-09-14T13:39:42.059Z,3.47
2022-09-14T13:42:09.781Z,3.20
2022-09-14T13:44:45.439Z,3.80
2022-09-14T13:47:15.108Z,3.67
2022-09-14T13:49:44.165Z,3.63
2022-09-14T13:52:22.508Z,4.00
2022-09-14T13:55:08.776Z,4.60
2022-09-14T13:57:35.505Z,3.95
2022-09-14T14:00:14.514Z,4.43
2022-09-14T14:02:48.082Z,3.67
2022-09-14T14:05:30.362Z,3.97
2022-09-14T14:07:58.982Z,3.72
2022-09-14T14:10:37.180Z,3.75
2022-09-14T14:13:04.029Z,4.45
2022-09-14T14:15:44.193Z,4.22
2022-09-14T14:18:35.573Z,3.85
2022-09-14T14:21:13.275Z,2.40
2022-09-14T14:23:56.745Z,2.50
2022-09-14T14:26:27.589Z,1.40
2022-09-14T14:28:55.049Z,1.25
2022-09-14T14:31:22.835Z,1.27
2022-09-14T14:33:53.499Z,1.20
2022-09-14T14:36:20.030Z,1.10
2022-09-14T14:38:48.107Z,0.90
2022-09-14T14:41:22.056Z,1.10
2022-09-14T14:43:50.845Z,1.00
2022-09-14T14:46:17.889Z,1.30
2022-09-14T14:48:44.565Z,1.20
2022-09-14T14:51:15.246Z,1.85
2022-09-14T14:53:42.961Z,1.65
2022-09-14T14:56:13.733Z,1.70
2022-09-14T14:58:47.444Z,1.73
2022-09-14T15:01:14.131Z,1.95
2022-09-14T15:03:40.751Z,1.80
2022-09-14T15:06:23.141Z,1.90
2022-09-14T15:08:56.616Z,2.08
2022-09-14T15:11:23.983Z,2.35
2022-09-14T15:13:50.906Z,2.28
2022-09-14T15:16:17.976Z,2.10
2022-09-14T15:18:44.742Z,1.90
2022-09-14T15:21:11.695Z,1.90
2022-09-14T15:23:38.572Z,2.55
2022-09-14T15:26:05.810Z,2.70
2022-09-14T15:28:35.818Z,2.53
2022-09-14T15:31:04.897Z,2.58
2022-09-14T15:33:34.189Z,2.67
2022-09-14T15:36:01.200Z,2.75
2022-09-14T15:38:27.845Z,3.20
2022-09-14T15:40:54.445Z,2.60
2022-09-14T15:43:21.105Z,2.97
2022-09-14T15:45:47.826Z,2.42
2022-09-14T15:48:16.338Z,2.80
2022-09-14T15:50:44.546Z,2.95
2022-09-14T15:53:12.681Z,2.53
2022-09-14T15:55:41.355Z,2.92
2022-09-14T15:58:08.829Z,3.10
2022-09-14T16:00:36.456Z,3.20
2022-09-14T16:03:03.945Z,3.28
2022-09-14T16:05:31.365Z,6.35
2022-09-14T16:07:57.923Z,4.25
2022-09-14T16:10:25.666Z,3.50
2022-09-14T16:13:18.393Z,3.65
2022-09-14T16:15:44.990Z,3.03
2022-09-14T16:18:11.842Z,3.22
2022-09-14T16:20:38.381Z,3.45
2022-09-14T16:23:05.035Z,3.58
2022-09-14T16:25:31.733Z,3.78
2022-09-14T16:27:58.242Z,3.28
2022-09-14T16:30:24.736Z,3.60
2022-09-14T16:32:52.460Z,3.30
2022-09-14T16:35:19.076Z,3.13
2022-09-14T16:37:45.624Z,3.25
2022-09-14T16:40:13.195Z,3.83
2022-09-14T16:42:39.967Z,4.05
2022-09-14T16:45:07.235Z,3.63
2022-09-14T16:47:33.721Z,3.92
2022-09-14T16:50:00.568Z,3.83
2022-09-14T16:52:27.541Z,3.45
2022-09-14T16:54:56.123Z,3.42
2022-09-14T16:57:25.480Z,3.88
2022-09-14T16:59:52.011Z,3.03
2022-09-14T17:02:18.634Z,2.58
2022-09-14T17:04:45.249Z,3.33
2022-09-14T17:07:11.759Z,3.40
2022-09-14T17:09:38.717Z,3.85
2022-09-14T17:12:05.490Z,3.28
2022-09-14T17:14:33.428Z,3.05
2022-09-14T17:17:00.543Z,2.90
2022-09-14T17:19:27.573Z,2.85
2022-09-14T17:21:54.777Z,2.35
2022-09-14T17:24:21.973Z,3.22
2022-09-14T17:26:49.219Z,2.85
2022-09-14T17:29:15.852Z,3.47
2022-09-14T17:31:44.850Z,3.40
2022-09-14T17:34:14.095Z,3.50
2022-09-14T17:36:40.743Z,3.50
2022-09-14T17:39:12.062Z,2.92
2022-09-14T17:41:40.004Z,3.08
2022-09-14T17:44:09.753Z,3.40
2022-09-14T17:46:41.453Z,3.13
2022-09-14T17:49:13.993Z,3.10
2022-09-14T17:51:40.957Z,3.13
2022-09-14T17:54:08.009Z,2.95
2022-09-14T17:56:34.587Z,3.60
2022-09-14T17:59:05.193Z,3.85
2022-09-14T18:01:33.345Z,3.33
2022-09-14T18:04:03.377Z,3.53
2022-09-14T18:06:33.026Z,3.40
2022-09-14T18:09:05.087Z,3.42
2022-09-14T18:11:31.975Z,3.08
2022-09-14T18:13:58.570Z,3.38
2022-09-14T18:16:26.204Z,3.35
2022-09-14T18:18:52.813Z,4.20
2022-09-14T18:21:19.882Z,4.10
2022-09-14T18:23:51.300Z,4.25
2022-09-14T18:26:18.453Z,3.22
2022-09-14T18:28:46.429Z,8.77
2022-09-14T18:31:15.900Z,5.45
2022-09-14T18:33:55.566Z,4.22
2022-09-14T18:36:22.605Z,3.55
2022-09-14T18:38:49.850Z,3.40
2022-09-14T18:41:18.136Z,3.95
2022-09-14T18:43:47.421Z,4.05
2022-09-14T18:46:14.924Z,2.80
2022-09-14T18:48:43.988Z,3.92
2022-09-14T18:51:12.410Z,6.05
2022-09-14T18:53:40.029Z,4.25
2022-09-14T18:56:09.332Z,4.43
2022-09-14T18:58:37.668Z,5.57
2022-09-14T19:01:05.029Z,4.38
2022-09-14T19:03:32.379Z,4.30
2022-09-14T19:06:04.734Z,4.50
2022-09-14T19:08:31.592Z,4.30
2022-09-14T19:11:04.201Z,4.35
2022-09-14T19:13:30.711Z,4.22
2022-09-14T19:15:57.276Z,5.00
2022-09-14T19:18:23.872Z,4.28
2022-09-14T19:21:05.791Z,4.53
2022-09-14T19:23:36.389Z,5.20
2022-09-14T19:26:08.325Z,4.88
2022-09-14T19:28:35.781Z,5.50
2022-09-14T19:31:10.945Z,4.82
2022-09-14T19:33:39.231Z,5.30
2022-09-14T19:36:14.142Z,5.05
2022-09-14T19:38:41.208Z,4.93
2022-09-14T19:41:08.748Z,4.90
2022-09-14T19:43:35.704Z,4.88
2022-09-14T19:46:10.193Z,5.25
2022-09-14T19:48:37.298Z,4.25
2022-09-14T19:54:00.624Z,5.22
2022-09-14T19:56:30.146Z,4.70
2022-09-14T19:59:00.451Z,3.70
2022-09-14T20:01:28.742Z,4.20
2022-09-14T20:03:55.426Z,6.07
2022-09-14T20:06:29.663Z,6.07
2022-09-14T20:08:58.245Z,6.60
2022-09-14T20:11:30.982Z,8.00
2022-09-14T20:13:59.289Z,7.13
2022-09-14T20:16:32.085Z,6.25
2022-09-14T20:19:04.467Z,6.85
2022-09-14T20:21:31.191Z,7.07
2022-09-14T20:24:16.620Z,7.20
2022-09-14T20:26:46.159Z,6.47
2022-09-14T20:29:12.822Z,5.70
2022-09-14T20:31:39.629Z,5.57
2022-09-14T20:34:06.295Z,5.78
2022-09-14T20:36:32.822Z,5.88
2022-09-14T20:38:59.950Z,5.43
2022-09-14T20:41:29.347Z,4.88
2022-09-14T20:43:56.466Z,5.68
2022-09-14T20:46:25.998Z,5.75
2022-09-14T20:48:53.966Z,5.60
2022-09-14T20:51:22.973Z,6.55
2022-09-14T20:53:49.600Z,5.57
2022-09-14T20:56:27.915Z,6.22
2022-09-14T20:58:56.861Z,5.80
2022-09-14T21:01:26.133Z,5.88
2022-09-14T21:03:53.460Z,6.07
2022-09-14T21:06:22.680Z,6.28
2022-09-14T21:08:49.575Z,6.32
2022-09-14T21:11:19.166Z,7.65
2022-09-14T21:13:46.231Z,8.18
2022-09-14T21:16:22.405Z,7.10
2022-09-14T21:18:56.517Z,8.05
2022-09-14T21:21:23.713Z,6.88
2022-09-14T21:23:51.027Z,12.55
2022-09-14T21:26:19.349Z,13.23
2022-09-14T21:28:46.621Z,12.07
2022-09-14T21:31:19.344Z,8.93
2022-09-14T21:33:48.833Z,19.98
2022-09-14T21:36:23.749Z,9.38
2022-09-14T21:38:52.700Z,6.65
2022-09-14T21:41:21.090Z,6.38
2022-09-14T21:43:48.746Z,7.00
2022-09-14T21:46:16.031Z,7.25
2022-09-14T21:48:43.251Z,6.18
2022-09-14T21:51:17.926Z,7.22
2022-09-14T21:53:46.593Z,7.57
2022-09-14T21:56:14.071Z,7.00
2022-09-14T21:58:40.735Z,6.07
2022-09-14T22:01:08.318Z,5.50
2022-09-14T22:03:36.727Z,5.18
2022-09-14T22:06:06.998Z,5.28
2022-09-14T22:08:35.022Z,5.35
2022-09-14T22:11:10.968Z,6.00
2022-09-14T22:13:38.601Z,5.75
2022-09-14T22:16:10.186Z,5.63
2022-09-14T22:18:38.772Z,5.45
2022-09-14T22:21:06.174Z,5.72
2022-09-14T22:23:34.254Z,6.47
2022-09-14T22:26:09.310Z,6.00
2022-09-14T22:28:36.681Z,6.30
2022-09-14T22:31:03.457Z,6.50
2022-09-14T22:33:30.125Z,5.43
2022-09-14T22:35:59.476Z,6.93
2022-09-14T22:38:28.615Z,6.80
2022-09-14T22:41:07.135Z,7.30
2022-09-14T22:43:35.383Z,7.60
2022-09-14T22:46:02.932Z,8.20
2022-09-14T22:48:29.755Z,7.85
2022-09-14T22:50:57.859Z,6.55
2022-09-14T22:53:25.462Z,11.30
2022-09-14T22:55:52.605Z,10.35
2022-09-14T22:58:22.750Z,10.50
2022-09-14T23:00:49.761Z,11.25
2022-09-14T23:03:17.396Z,10.68
2022-09-14T23:06:01.779Z,9.82
2022-09-14T23:08:28.899Z,10.60
2022-09-14T23:10:55.784Z,11.50
2022-09-14T23:13:22.919Z,9.50
2022-09-14T23:15:49.456Z,8.13
2022-09-14T23:18:16.014Z,9.70
2022-09-14T23:20:44.594Z,9.50
2022-09-14T23:23:12.153Z,9.15
2022-09-14T23:25:40.057Z,9.90
2022-09-14T23:28:09.942Z,11.20
2022-09-14T23:30:36.557Z,12.30
2022-09-14T23:33:03.129Z,9.23
2022-09-14T23:35:30.685Z,19.70
2022-09-14T23:37:58.635Z,21.15
2022-09-14T23:40:25.249Z,21.38
2022-09-14T23:42:52.049Z,19.52
2022-09-14T23:45:18.678Z,21.90
2022-09-14T23:47:46.072Z,18.88
2022-09-14T23:50:12.649Z,21.98
2022-09-14T23:52:40.652Z,18.80
2022-09-14T23:55:07.833Z,19.30
2022-09-14T23:57:34.390Z,19.33
